Time;durP1;ratioP1;P1;durP2;ratioP2;P2;SDS_P1;SDS_P2;PMS_P1;PMS_P2;Temp;Humidity;BMP_temperature;BMP_pressure;BME280_temperature;BME280_humidity;BME280_pressure;Samples;Min_cycle;Max_cycle;Signal;HPM_P1;HPM_P2
2022/11/21 00:00:13;;;;;;;17.65;8.57;;;;;;;;;;5085808;28;20447;-73
2022/11/21 00:02:39;;;;;;;17.10;8.55;;;;;;;;;;5084173;28;20036;-74
2022/11/21 00:05:05;;;;;;;17.58;10.43;;;;;;;;;;5080298;28;20036;-74
2022/11/21 00:07:31;;;;;;;21.58;11.88;;;;;;;;;;5083366;28;20129;-73
2022/11/21 00:09:57;;;;;;;13.73;7.38;;;;;;;;;;5087295;28;20107;-74
2022/11/21 00:12:23;;;;;;;11.45;5.03;;;;;;;;;;5079900;28;20034;-74
2022/11/21 00:14:49;;;;;;;9.57;3.88;;;;;;;;;;5085604;28;20027;-74
2022/11/21 00:17:15;;;;;;;8.65;4.35;;;;;;;;;;5080779;28;20033;-74
2022/11/21 00:19:41;;;;;;;11.50;4.88;;;;;;;;;;5077313;28;20535;-74
2022/11/21 00:22:07;;;;;;;9.68;4.25;;;;;;;;;;5083628;28;20060;-74
2022/11/21 00:24:33;;;;;;;8.27;4.03;;;;;;;;;;5077485;28;20110;-74
2022/11/21 00:26:59;;;;;;;9.00;4.13;;;;;;;;;;5088136;28;20039;-73
2022/11/21 00:29:25;;;;;;;10.32;4.65;;;;;;;;;;5083147;28;20043;-74
2022/11/21 00:31:51;;;;;;;21.75;12.27;;;;;;;;;;5085941;28;20108;-73
2022/11/21 00:34:17;;;;;;;28.38;15.15;;;;;;;;;;5081264;28;20413;-74
2022/11/21 00:36:43;;;;;;;41.78;23.85;;;;;;;;;;5079935;28;20043;-73
2022/11/21 00:39:09;;;;;;;54.05;35.45;;;;;;;;;;5085395;28;20109;-74
2022/11/21 00:41:35;;;;;;;48.92;31.60;;;;;;;;;;5076839;28;20043;-73
2022/11/21 00:44:01;;;;;;;66.03;43.33;;;;;;;;;;5086757;28;20047;-73
2022/11/21 00:46:27;;;;;;;61.13;39.17;;;;;;;;;;5086559;28;20404;-73
2022/11/21 00:48:53;;;;;;;44.95;31.50;;;;;;;;;;5083996;28;20046;-74
2022/11/21 00:51:19;;;;;;;20.63;13.23;;;;;;;;;;5082904;28;20029;-74
2022/11/21 00:53:45;;;;;;;21.67;11.10;;;;;;;;;;5085138;28;20028;-73
2022/11/21 00:56:11;;;;;;;18.65;10.13;;;;;;;;;;5079360;28;20051;-74
2022/11/21 00:58:37;;;;;;;17.27;8.10;;;;;;;;;;5083319;28;20763;-74
2022/11/21 01:01:04;;;;;;;9.13;4.57;;;;;;;;;;5084688;28;20067;-73
2022/11/21 01:03:32;;;;;;;7.13;2.55;;;;;;;;;;5078011;28;20055;-74
2022/11/21 01:06:02;;;;;;;9.02;3.60;;;;;;;;;;5079102;28;20090;-73
2022/11/21 01:08:28;;;;;;;8.25;3.63;;;;;;;;;;5078474;28;20048;-74
2022/11/21 01:10:54;;;;;;;6.60;3.25;;;;;;;;;;5080558;28;20036;-74
2022/11/21 01:13:20;;;;;;;5.90;2.80;;;;;;;;;;5084523;28;20032;-74
2022/11/21 01:15:46;;;;;;;5.05;2.08;;;;;;;;;;5087353;28;20020;-74
2022/11/21 01:18:12;;;;;;;6.35;3.50;;;;;;;;;;5084632;28;20040;-73
2022/11/21 01:20:39;;;;;;;7.72;4.50;;;;;;;;;;5085119;28;20613;-74
2022/11/21 01:23:05;;;;;;;6.60;4.07;;;;;;;;;;5080405;28;20074;-74
2022/11/21 01:25:34;;;;;;;8.00;3.95;;;;;;;;;;5074637;28;20031;-74
2022/11/21 01:28:00;;;;;;;11.70;6.60;;;;;;;;;;5073376;28;20081;-74
2022/11/21 01:30:26;;;;;;;19.23;11.68;;;;;;;;;;5084311;28;20027;-74
2022/11/21 01:32:52;;;;;;;16.33;9.70;;;;;;;;;;5082613;28;20058;-73
2022/11/21 01:35:18;;;;;;;12.18;7.38;;;;;;;;;;5084674;28;20028;-74
2022/11/21 01:37:47;;;;;;;7.13;4.38;;;;;;;;;;5082132;28;20048;-74
2022/11/21 01:40:14;;;;;;;7.60;4.40;;;;;;;;;;5085670;28;20059;-73
2022/11/21 01:42:52;;;;;;;9.95;5.10;;;;;;;;;;5074457;28;20033;-74
2022/11/21 01:45:37;;;;;;;4.75;2.50;;;;;;;;;;5078484;28;20051;-74
2022/11/21 01:48:03;;;;;;;8.18;3.28;;;;;;;;;;5084918;28;20105;-74
2022/11/21 01:50:29;;;;;;;7.05;3.58;;;;;;;;;;5080591;28;20052;-74
2022/11/21 01:52:55;;;;;;;6.78;2.70;;;;;;;;;;5088044;28;20449;-74
2022/11/21 01:55:21;;;;;;;7.18;2.95;;;;;;;;;;5084751;28;20039;-74
2022/11/21 01:57:48;;;;;;;7.35;3.28;;;;;;;;;;5086272;28;20165;-74
2022/11/21 02:00:20;;;;;;;9.10;3.92;;;;;;;;;;5078018;28;20510;-74
2022/11/21 02:02:48;;;;;;;8.18;3.85;;;;;;;;;;5080887;28;20173;-74
2022/11/21 02:05:20;;;;;;;8.02;3.42;;;;;;;;;;5084530;28;20055;-74
2022/11/21 02:07:47;;;;;;;5.90;3.33;;;;;;;;;;5083379;28;20048;-74
2022/11/21 02:10:14;;;;;;;10.35;4.95;;;;;;;;;;5077532;28;20550;-74
2022/11/21 02:12:45;;;;;;;8.13;4.75;;;;;;;;;;5085269;28;20032;-74
2022/11/21 02:15:11;;;;;;;7.13;4.25;;;;;;;;;;5086325;28;20020;-74
2022/11/21 02:17:37;;;;;;;5.30;3.30;;;;;;;;;;5075289;28;20032;-74
2022/11/21 02:20:08;;;;;;;5.05;2.28;;;;;;;;;;5077519;28;20069;-74
2022/11/21 02:22:52;;;;;;;5.30;2.28;;;;;;;;;;5072376;28;20712;-74
2022/11/21 02:25:19;;;;;;;5.10;2.42;;;;;;;;;;5067743;28;20415;-74
2022/11/21 02:27:46;;;;;;;5.15;2.03;;;;;;;;;;5075821;28;20119;-74
2022/11/21 02:30:12;;;;;;;6.13;2.15;;;;;;;;;;5083006;28;20339;-74
2022/11/21 02:32:39;;;;;;;4.80;1.88;;;;;;;;;;5083367;28;20094;-74
2022/11/21 02:35:06;;;;;;;5.15;1.95;;;;;;;;;;5083491;28;20060;-74
2022/11/21 02:37:33;;;;;;;4.93;2.15;;;;;;;;;;5081812;28;20062;-74
2022/11/21 02:40:01;;;;;;;5.28;2.40;;;;;;;;;;5079181;28;20032;-74
2022/11/21 02:42:36;;;;;;;6.43;2.53;;;;;;;;;;5075905;28;20071;-74
2022/11/21 02:45:08;;;;;;;5.97;2.58;;;;;;;;;;5073935;28;20440;-74
2022/11/21 02:47:34;;;;;;;6.40;2.22;;;;;;;;;;5083513;28;22051;-74
2022/11/21 02:50:07;;;;;;;4.45;2.13;;;;;;;;;;5073928;28;20028;-74
2022/11/21 02:52:33;;;;;;;4.55;2.08;;;;;;;;;;5088515;28;20794;-75
2022/11/21 02:54:59;;;;;;;4.10;1.80;;;;;;;;;;5082890;28;20028;-73
2022/11/21 02:57:25;;;;;;;5.93;2.20;;;;;;;;;;5086583;28;20114;-74
2022/11/21 02:59:51;;;;;;;5.18;1.65;;;;;;;;;;5087841;28;20031;-74
2022/11/21 03:02:16;;;;;;;3.58;1.85;;;;;;;;;;5079728;28;20381;-74
2022/11/21 03:04:44;;;;;;;4.93;1.52;;;;;;;;;;5085933;28;20059;-74
2022/11/21 03:07:09;;;;;;;3.78;1.23;;;;;;;;;;5080460;28;20049;-74
2022/11/21 03:09:35;;;;;;;3.40;0.93;;;;;;;;;;5078050;28;20373;-74
2022/11/21 03:12:05;;;;;;;3.13;1.20;;;;;;;;;;5083225;28;20111;-74
2022/11/21 03:14:31;;;;;;;4.88;1.83;;;;;;;;;;5083104;28;20027;-74
2022/11/21 03:16:58;;;;;;;7.50;2.00;;;;;;;;;;5082450;28;20028;-74
2022/11/21 03:19:24;;;;;;;3.33;1.48;;;;;;;;;;5078432;28;20032;-74
2022/11/21 03:21:50;;;;;;;4.38;1.50;;;;;;;;;;5084427;28;20743;-74
2022/11/21 03:24:16;;;;;;;5.65;1.52;;;;;;;;;;5080096;28;20122;-74
2022/11/21 03:26:42;;;;;;;3.83;1.42;;;;;;;;;;5086049;28;20042;-74
2022/11/21 03:29:08;;;;;;;4.78;1.33;;;;;;;;;;5073778;28;20455;-74
2022/11/21 03:31:34;;;;;;;2.78;1.13;;;;;;;;;;5080094;28;20028;-74
2022/11/21 03:34:00;;;;;;;3.17;1.27;;;;;;;;;;5080352;28;20044;-74
2022/11/21 03:36:26;;;;;;;2.58;1.00;;;;;;;;;;5079068;28;20111;-73
2022/11/21 03:38:55;;;;;;;4.53;1.20;;;;;;;;;;5082069;28;20051;-74
2022/11/21 03:41:29;;;;;;;3.58;1.40;;;;;;;;;;5082570;28;20063;-74
2022/11/21 03:43:56;;;;;;;5.47;1.42;;;;;;;;;;5074565;28;20040;-74
2022/11/21 03:46:22;;;;;;;3.00;1.10;;;;;;;;;;5077438;28;20036;-74
2022/11/21 03:48:48;;;;;;;2.58;1.00;;;;;;;;;;5089728;28;20073;-74
2022/11/21 03:51:14;;;;;;;4.70;1.45;;;;;;;;;;5086382;28;20028;-74
2022/11/21 03:53:40;;;;;;;2.58;0.90;;;;;;;;;;5079355;28;20556;-74
2022/11/21 03:56:06;;;;;;;3.08;0.90;;;;;;;;;;5080901;28;20043;-74
2022/11/21 03:58:32;;;;;;;4.20;1.25;;;;;;;;;;5080459;28;20040;-74
2022/11/21 04:00:58;;;;;;;4.00;1.10;;;;;;;;;;5078901;28;20079;-74
2022/11/21 04:03:24;;;;;;;4.57;1.50;;;;;;;;;;5080094;28;20113;-74
2022/11/21 04:05:50;;;;;;;2.92;1.00;;;;;;;;;;5079321;28;20127;-74
2022/11/21 04:08:16;;;;;;;4.68;1.40;;;;;;;;;;5077913;28;20040;-73
2022/11/21 04:10:48;;;;;;;5.22;1.23;;;;;;;;;;5079311;28;20036;-74
2022/11/21 04:13:14;;;;;;;3.50;1.20;;;;;;;;;;5074754;28;20501;-74
2022/11/21 04:15:41;;;;;;;6.03;1.50;;;;;;;;;;5084762;28;20038;-74
2022/11/21 04:18:07;;;;;;;5.72;1.50;;;;;;;;;;5071041;28;20037;-74
2022/11/21 04:20:33;;;;;;;3.80;1.40;;;;;;;;;;5079380;28;20028;-74
2022/11/21 04:22:59;;;;;;;4.03;1.50;;;;;;;;;;5081896;28;20212;-74
2022/11/21 04:25:25;;;;;;;4.13;1.15;;;;;;;;;;5073951;28;20138;-74
2022/11/21 04:27:51;;;;;;;7.03;2.65;;;;;;;;;;5079222;28;20032;-74
2022/11/21 04:30:17;;;;;;;3.38;1.50;;;;;;;;;;5085391;28;20036;-74
2022/11/21 04:32:43;;;;;;;2.75;1.00;;;;;;;;;;5081976;28;20040;-73
2022/11/21 04:35:09;;;;;;;3.13;1.00;;;;;;;;;;5081994;28;20075;-74
2022/11/21 04:37:35;;;;;;;2.85;1.40;;;;;;;;;;5087934;28;20028;-74
2022/11/21 04:40:01;;;;;;;2.83;1.00;;;;;;;;;;5084886;28;20036;-74
2022/11/21 04:42:27;;;;;;;2.33;0.93;;;;;;;;;;5084660;28;20089;-74
2022/11/21 04:44:53;;;;;;;3.35;1.30;;;;;;;;;;5084472;28;20499;-74
2022/11/21 04:47:19;;;;;;;3.03;0.98;;;;;;;;;;5078093;28;20072;-74
2022/11/21 04:49:45;;;;;;;2.67;1.00;;;;;;;;;;5085011;28;20024;-74
2022/11/21 04:52:11;;;;;;;3.25;1.13;;;;;;;;;;5077231;28;20040;-74
2022/11/21 04:54:37;;;;;;;3.30;1.05;;;;;;;;;;5087249;28;20038;-73
2022/11/21 04:57:03;;;;;;;3.15;0.88;;;;;;;;;;5092227;28;21010;-74
2022/11/21 04:59:29;;;;;;;5.78;1.98;;;;;;;;;;5085603;28;20028;-73
2022/11/21 05:01:55;;;;;;;3.53;1.00;;;;;;;;;;5080140;28;20031;-74
2022/11/21 05:04:21;;;;;;;2.53;0.80;;;;;;;;;;5085385;28;20118;-74
2022/11/21 05:06:47;;;;;;;3.42;0.80;;;;;;;;;;5083804;28;20066;-74
2022/11/21 05:09:13;;;;;;;2.83;1.00;;;;;;;;;;5087931;28;20054;-74
2022/11/21 05:14:25;;;;;;;5.15;3.05;;;;;;;;;;5078444;28;20067;-74
2022/11/21 05:16:51;;;;;;;3.47;1.58;;;;;;;;;;5085805;28;20051;-74
2022/11/21 05:19:17;;;;;;;3.38;1.17;;;;;;;;;;5082697;28;20479;-73
2022/11/21 05:21:43;;;;;;;5.60;2.97;;;;;;;;;;5083839;28;20036;-74
2022/11/21 05:24:09;;;;;;;5.43;3.25;;;;;;;;;;5079636;28;20042;-74
2022/11/21 05:26:36;;;;;;;4.97;2.42;;;;;;;;;;5084865;28;20024;-74
2022/11/21 05:29:02;;;;;;;8.57;2.38;;;;;;;;;;5084079;28;20028;-74
2022/11/21 05:31:28;;;;;;;6.22;1.92;;;;;;;;;;5087951;28;20038;-74
2022/11/21 05:33:54;;;;;;;7.22;2.72;;;;;;;;;;5079691;28;20032;-73
2022/11/21 05:36:20;;;;;;;6.63;3.20;;;;;;;;;;5086562;28;20797;-74
2022/11/21 05:38:46;;;;;;;6.30;2.72;;;;;;;;;;5085442;28;20044;-74
2022/11/21 05:41:12;;;;;;;5.25;2.13;;;;;;;;;;5079464;28;20720;-73
2022/11/21 05:43:44;;;;;;;4.65;1.50;;;;;;;;;;5084588;28;20081;-73
2022/11/21 05:46:11;;;;;;;7.82;1.88;;;;;;;;;;5076100;28;20036;-74
2022/11/21 05:48:37;;;;;;;6.00;2.58;;;;;;;;;;5077904;28;20033;-74
2022/11/21 05:51:03;;;;;;;7.30;3.92;;;;;;;;;;5084730;28;20046;-74
2022/11/21 05:53:29;;;;;;;5.03;2.17;;;;;;;;;;5087098;28;20028;-74
2022/11/21 05:55:56;;;;;;;3.85;1.63;;;;;;;;;;5079304;28;20021;-74
2022/11/21 05:58:22;;;;;;;4.72;1.77;;;;;;;;;;5082225;28;20036;-74
2022/11/21 06:00:48;;;;;;;6.72;2.30;;;;;;;;;;5072697;28;20028;-74
2022/11/21 06:03:26;;;;;;;7.43;2.95;;;;;;;;;;5077409;28;20063;-74
2022/11/21 06:06:02;;;;;;;6.05;3.20;;;;;;;;;;5086716;28;20051;-74
2022/11/21 06:08:29;;;;;;;8.13;3.40;;;;;;;;;;5081862;28;20122;-74
2022/11/21 06:10:55;;;;;;;7.57;3.60;;;;;;;;;;5086187;28;20029;-74
2022/11/21 06:13:21;;;;;;;7.72;1.83;;;;;;;;;;5077596;28;20072;-74
2022/11/21 06:15:52;;;;;;;6.75;2.83;;;;;;;;;;5070362;28;20031;-74
2022/11/21 06:18:18;;;;;;;11.00;5.65;;;;;;;;;;5075207;28;20072;-74
2022/11/21 06:20:44;;;;;;;8.65;5.03;;;;;;;;;;5079479;28;20024;-74
2022/11/21 06:23:11;;;;;;;8.13;4.38;;;;;;;;;;5078990;28;20072;-74
2022/11/21 06:25:37;;;;;;;13.00;7.15;;;;;;;;;;5082167;28;20024;-74
2022/11/21 06:28:03;;;;;;;17.17;7.82;;;;;;;;;;5079123;28;20077;-74
2022/11/21 06:30:29;;;;;;;9.73;4.78;;;;;;;;;;5079077;28;20760;-74
2022/11/21 06:32:55;;;;;;;8.18;3.47;;;;;;;;;;5083016;28;20040;-74
2022/11/21 06:35:21;;;;;;;18.27;10.80;;;;;;;;;;5081124;28;20035;-74
2022/11/21 06:37:47;;;;;;;25.83;13.88;;;;;;;;;;5081784;28;20052;-74
2022/11/21 06:40:13;;;;;;;34.97;17.65;;;;;;;;;;5081039;28;20047;-74
2022/11/21 06:42:39;;;;;;;53.92;26.00;;;;;;;;;;5082404;28;20082;-74
2022/11/21 06:45:05;;;;;;;63.83;25.23;;;;;;;;;;5076142;28;20414;-74
2022/11/21 06:47:34;;;;;;;82.82;31.48;;;;;;;;;;5081694;28;20041;-74
2022/11/21 06:50:00;;;;;;;25.38;10.43;;;;;;;;;;5081289;28;20035;-74
2022/11/21 06:52:26;;;;;;;14.82;6.30;;;;;;;;;;5082361;28;20032;-74
2022/11/21 06:54:52;;;;;;;12.73;6.25;;;;;;;;;;5080996;28;20469;-74
2022/11/21 06:57:19;;;;;;;11.38;4.70;;;;;;;;;;5078554;28;20043;-74
2022/11/21 06:59:44;;;;;;;8.43;2.80;;;;;;;;;;5079501;28;20023;-74
2022/11/21 07:02:15;;;;;;;28.75;12.55;;;;;;;;;;5074969;28;20054;-74
2022/11/21 07:04:41;;;;;;;15.75;5.70;;;;;;;;;;5081566;28;20029;-74
2022/11/21 07:07:07;;;;;;;6.72;2.33;;;;;;;;;;5082782;28;20443;-74
2022/11/21 07:09:34;;;;;;;13.20;6.03;;;;;;;;;;5086040;28;20028;-74
2022/11/21 07:13:20;;;;;;;12.70;6.45;;;;;;;;;;5082989;28;20354;-74
2022/11/21 07:14:46;;;;;;;11.75;5.30;;;;;;;;;;5079391;28;20032;-76
2022/11/21 07:17:12;;;;;;;9.10;4.68;;;;;;;;;;5079681;28;20179;-74
2022/11/21 07:19:38;;;;;;;16.52;7.72;;;;;;;;;;5082451;28;20921;-75
2022/11/21 07:22:05;;;;;;;11.73;5.50;;;;;;;;;;5082689;28;20039;-75
2022/11/21 07:24:31;;;;;;;13.35;7.25;;;;;;;;;;5079893;28;20043;-74
2022/11/21 07:26:56;;;;;;;41.70;23.05;;;;;;;;;;5085327;28;20028;-74
2022/11/21 07:29:22;;;;;;;49.22;29.13;;;;;;;;;;5080559;28;20032;-74
2022/11/21 07:31:48;;;;;;;38.67;22.25;;;;;;;;;;5076245;28;20033;-75
2022/11/21 07:34:14;;;;;;;25.08;13.98;;;;;;;;;;5077879;28;20505;-75
2022/11/21 07:36:40;;;;;;;26.95;12.68;;;;;;;;;;5084333;28;20069;-74
2022/11/21 07:39:06;;;;;;;33.08;18.38;;;;;;;;;;5078469;28;20771;-74
2022/11/21 07:41:32;;;;;;;23.77;12.00;;;;;;;;;;5084382;28;20120;-74
2022/11/21 07:43:58;;;;;;;18.02;8.43;;;;;;;;;;5076960;28;20073;-74
2022/11/21 07:46:24;;;;;;;14.32;6.13;;;;;;;;;;5083444;28;20043;-74
2022/11/21 07:48:50;;;;;;;14.93;5.15;;;;;;;;;;5085198;28;20487;-75
2022/11/21 07:51:16;;;;;;;15.95;6.38;;;;;;;;;;5082391;28;20051;-74
2022/11/21 07:53:42;;;;;;;13.55;5.47;;;;;;;;;;5083148;28;20020;-74
2022/11/21 07:56:08;;;;;;;17.95;6.10;;;;;;;;;;5085348;28;20303;-74
2022/11/21 07:58:35;;;;;;;12.63;5.68;;;;;;;;;;5079962;28;20139;-74
2022/11/21 08:01:04;;;;;;;14.52;5.93;;;;;;;;;;5086430;28;20076;-74
2022/11/21 08:03:31;;;;;;;12.77;5.38;;;;;;;;;;5085406;28;20397;-74
2022/11/21 08:06:00;;;;;;;8.68;3.65;;;;;;;;;;5085157;28;20538;-74
2022/11/21 08:08:26;;;;;;;9.45;3.63;;;;;;;;;;5084763;28;20082;-74
2022/11/21 08:10:52;;;;;;;7.70;1.70;;;;;;;;;;5083646;28;20583;-74
2022/11/21 08:13:18;;;;;;;8.98;3.08;;;;;;;;;;5083904;28;20131;-74
2022/11/21 08:15:44;;;;;;;13.52;4.90;;;;;;;;;;5083494;28;20039;-74
2022/11/21 08:18:11;;;;;;;16.55;6.00;;;;;;;;;;5085605;28;20136;-74
2022/11/21 08:20:38;;;;;;;24.33;8.77;;;;;;;;;;5082994;28;20032;-74
2022/11/21 08:23:04;;;;;;;14.80;4.75;;;;;;;;;;5081201;28;20061;-74
2022/11/21 08:25:31;;;;;;;10.38;2.22;;;;;;;;;;5077842;28;20040;-74
2022/11/21 08:27:57;;;;;;;7.90;2.30;;;;;;;;;;5079500;28;20078;-75
2022/11/21 08:30:24;;;;;;;8.80;3.55;;;;;;;;;;5078845;28;20039;-74
2022/11/21 08:32:50;;;;;;;4.07;1.40;;;;;;;;;;5085710;28;20510;-74
2022/11/21 08:35:16;;;;;;;4.75;0.88;;;;;;;;;;5083163;28;20031;-74
2022/11/21 08:37:42;;;;;;;2.35;0.85;;;;;;;;;;5088337;28;20036;-74
2022/11/21 08:40:08;;;;;;;4.05;0.90;;;;;;;;;;5080255;28;20055;-74
2022/11/21 08:42:34;;;;;;;6.03;0.98;;;;;;;;;;5080210;28;20112;-74
2022/11/21 08:45:00;;;;;;;3.90;0.70;;;;;;;;;;5086229;28;20137;-74
2022/11/21 08:47:26;;;;;;;6.43;1.05;;;;;;;;;;5085082;28;20036;-74
2022/11/21 08:49:52;;;;;;;8.50;1.10;;;;;;;;;;5084172;28;20026;-74
2022/11/21 08:52:18;;;;;;;6.30;1.45;;;;;;;;;;5080574;28;20757;-74
2022/11/21 08:54:45;;;;;;;7.20;2.65;;;;;;;;;;5083128;28;20035;-74
2022/11/21 08:57:11;;;;;;;5.95;1.92;;;;;;;;;;5081853;28;20552;-73
2022/11/21 08:59:37;;;;;;;14.20;3.33;;;;;;;;;;5077919;28;20039;-74
2022/11/21 09:02:03;;;;;;;12.27;4.88;;;;;;;;;;5084355;28;20038;-74
2022/11/21 09:04:29;;;;;;;9.60;4.40;;;;;;;;;;5082382;28;20398;-74
2022/11/21 09:06:55;;;;;;;13.25;4.75;;;;;;;;;;5089376;28;20042;-74
2022/11/21 09:09:22;;;;;;;10.52;3.42;;;;;;;;;;5081340;28;20052;-74
2022/11/21 09:11:48;;;;;;;8.43;2.45;;;;;;;;;;5085097;28;20049;-74
2022/11/21 09:19:44;;;;;;;7.82;2.03;;;;;;;;;;5084345;28;20194;-75
2022/11/21 09:22:10;;;;;;;12.45;2.53;;;;;;;;;;5081671;28;20032;-75
2022/11/21 09:24:36;;;;;;;7.03;2.10;;;;;;;;;;5082968;28;20031;-75
2022/11/21 09:27:02;;;;;;;6.85;1.73;;;;;;;;;;5080842;28;20036;-75
2022/11/21 09:29:28;;;;;;;8.32;2.58;;;;;;;;;;5087491;28;20115;-75
2022/11/21 09:31:54;;;;;;;6.55;1.73;;;;;;;;;;5086327;28;20836;-75
2022/11/21 09:34:20;;;;;;;5.88;1.80;;;;;;;;;;5080104;28;20039;-75
2022/11/21 09:36:46;;;;;;;7.10;2.30;;;;;;;;;;5081849;28;20051;-75
2022/11/21 09:39:12;;;;;;;6.25;2.90;;;;;;;;;;5082650;28;20040;-74
2022/11/21 09:41:53;;;;;;;8.93;2.83;;;;;;;;;;5077521;28;20120;-75
2022/11/21 09:44:34;;;;;;;8.23;2.42;;;;;;;;;;5082245;28;20772;-74
2022/11/21 09:47:15;;;;;;;9.02;2.95;;;;;;;;;;5080886;28;20063;-75
2022/11/21 09:49:43;;;;;;;8.07;3.00;;;;;;;;;;5078020;28;20036;-75
2022/11/21 09:52:11;;;;;;;9.63;2.30;;;;;;;;;;5079562;28;20605;-75
2022/11/21 09:54:41;;;;;;;12.70;4.03;;;;;;;;;;5083503;28;20036;-75
2022/11/21 09:57:09;;;;;;;21.70;11.13;;;;;;;;;;5081808;28;20032;-75
2022/11/21 09:59:37;;;;;;;12.30;3.97;;;;;;;;;;5077931;28;20032;-75
2022/11/21 10:02:13;;;;;;;7.15;1.73;;;;;;;;;;5083509;28;20052;-75
2022/11/21 10:04:39;;;;;;;6.55;1.20;;;;;;;;;;5086299;28;20036;-75
2022/11/21 10:07:06;;;;;;;8.73;1.60;;;;;;;;;;5083487;28;20056;-75
2022/11/21 10:09:45;;;;;;;7.45;1.38;;;;;;;;;;5082322;28;20029;-75
2022/11/21 10:14:58;;;;;;;10.25;1.80;;;;;;;;;;5080254;28;20046;-75
2022/11/21 10:17:31;;;;;;;11.50;2.40;;;;;;;;;;5084505;28;20521;-75
2022/11/21 10:20:08;;;;;;;9.68;2.75;;;;;;;;;;5079654;28;20476;-75
2022/11/21 10:22:53;;;;;;;10.57;3.88;;;;;;;;;;5080153;28;20040;-75
2022/11/21 10:25:27;;;;;;;11.48;2.92;;;;;;;;;;5074310;28;20036;-75
2022/11/21 10:28:04;;;;;;;14.18;7.13;;;;;;;;;;5085076;28;20118;-75
2022/11/21 10:30:30;;;;;;;12.98;6.95;;;;;;;;;;5084571;28;20028;-75
2022/11/21 10:32:58;;;;;;;12.32;5.47;;;;;;;;;;5080158;28;20039;-75
2022/11/21 10:35:36;;;;;;;6.35;2.30;;;;;;;;;;5078733;28;20024;-75
2022/11/21 10:38:04;;;;;;;5.90;1.70;;;;;;;;;;5076181;28;20048;-75
2022/11/21 10:40:33;;;;;;;9.25;1.63;;;;;;;;;;5082185;28;20077;-76
2022/11/21 10:45:15;;;;;;;5.03;1.50;;;;;;;;;;5076134;28;20044;-75
2022/11/21 10:45:50;;;;;;;6.07;0.93;;;;;;;;;;5083599;28;20035;-75
2022/11/21 10:48:16;;;;;;;4.80;1.25;;;;;;;;;;5075947;28;20036;-75
2022/11/21 10:50:54;;;;;;;5.22;0.77;;;;;;;;;;5080662;28;20111;-75
2022/11/21 10:56:09;;;;;;;4.05;1.00;;;;;;;;;;5079593;28;20052;-75
2022/11/21 10:58:40;;;;;;;5.65;1.10;;;;;;;;;;5081726;28;20115;-75
2022/11/21 11:01:06;;;;;;;6.22;1.40;;;;;;;;;;5079605;28;20040;-75
2022/11/21 11:03:32;;;;;;;7.15;1.58;;;;;;;;;;5085836;28;20114;-75
2022/11/21 11:05:58;;;;;;;7.25;1.48;;;;;;;;;;5081512;28;20052;-75
2022/11/21 11:08:26;;;;;;;5.25;1.73;;;;;;;;;;5083471;28;20396;-75
2022/11/21 11:11:03;;;;;;;5.47;1.20;;;;;;;;;;5081079;28;20076;-75
2022/11/21 11:13:32;;;;;;;9.52;1.40;;;;;;;;;;5082187;28;20945;-75
2022/11/21 11:16:03;;;;;;;10.10;1.75;;;;;;;;;;5074140;28;20024;-75
2022/11/21 11:18:30;;;;;;;4.78;1.55;;;;;;;;;;5084468;28;20084;-75
2022/11/21 11:21:09;;;;;;;7.88;1.05;;;;;;;;;;5082274;28;20031;-75
2022/11/21 11:23:35;;;;;;;6.43;1.05;;;;;;;;;;5077251;28;20028;-73
2022/11/21 11:26:01;;;;;;;6.28;1.67;;;;;;;;;;5079893;28;20031;-72
2022/11/21 11:28:33;;;;;;;9.80;2.45;;;;;;;;;;5076024;28;20119;-72
2022/11/21 11:31:00;;;;;;;8.23;2.58;;;;;;;;;;5079768;28;20050;-72
2022/11/21 11:33:29;;;;;;;5.20;1.50;;;;;;;;;;5081364;28;20039;-73
2022/11/21 11:36:05;;;;;;;8.35;1.40;;;;;;;;;;5076064;28;20081;-72
2022/11/21 11:38:31;;;;;;;9.70;2.00;;;;;;;;;;5079716;28;20028;-72
2022/11/21 11:41:00;;;;;;;12.63;1.42;;;;;;;;;;5082039;28;20062;-72
2022/11/21 11:49:02;;;;;;;4.57;0.80;;;;;;;;;;5083618;28;20059;-72
2022/11/21 11:51:31;;;;;;;6.28;1.67;;;;;;;;;;5082413;28;20029;-72
2022/11/21 11:54:00;;;;;;;4.38;1.05;;;;;;;;;;5083935;28;20039;-72
2022/11/21 11:56:28;;;;;;;8.50;1.48;;;;;;;;;;5075709;28;20032;-73
2022/11/21 11:58:54;;;;;;;5.53;1.10;;;;;;;;;;5082343;28;21046;-72
2022/11/21 12:01:38;;;;;;;7.00;1.10;;;;;;;;;;5076840;28;20024;-73
2022/11/21 12:04:07;;;;;;;10.88;1.50;;;;;;;;;;5079715;28;20139;-73
2022/11/21 12:06:36;;;;;;;5.88;1.45;;;;;;;;;;5078381;28;20132;-73
2022/11/21 12:09:05;;;;;;;6.78;1.05;;;;;;;;;;5074932;28;20046;-73
2022/11/21 12:15:47;;;;;;;6.25;1.35;;;;;;;;;;5079646;28;20048;-73
2022/11/21 12:17:05;;;;;;;4.78;1.17;;;;;;;;;;5081611;28;20044;-73
2022/11/21 12:19:31;;;;;;;6.57;1.13;;;;;;;;;;5079109;28;20070;-72
2022/11/21 12:21:57;;;;;;;9.25;1.65;;;;;;;;;;5064763;28;20055;-73
2022/11/21 12:24:23;;;;;;;5.93;1.20;;;;;;;;;;5078051;28;20040;-73
2022/11/21 12:26:55;;;;;;;5.72;1.85;;;;;;;;;;5061938;28;20028;-73
2022/11/21 12:29:30;;;;;;;9.00;1.10;;;;;;;;;;5083061;28;20033;-72
2022/11/21 12:32:09;;;;;;;2.47;0.80;;;;;;;;;;5084238;28;20032;-72
2022/11/21 12:34:53;;;;;;;4.45;1.17;;;;;;;;;;5078036;28;20086;-73
2022/11/21 12:37:37;;;;;;;4.57;1.00;;;;;;;;;;5079043;28;20134;-73
2022/11/21 12:40:13;;;;;;;3.47;1.30;;;;;;;;;;5076773;28;20534;-72
2022/11/21 12:42:48;;;;;;;5.28;1.40;;;;;;;;;;5076447;28;20060;-73
2022/11/21 12:45:34;;;;;;;4.72;1.10;;;;;;;;;;5081298;28;20065;-72
2022/11/21 12:56:54;;;;;;;5.20;1.58;;;;;;;;;;5078687;28;20047;-72
2022/11/21 12:59:21;;;;;;;7.10;1.58;;;;;;;;;;5076087;28;20036;-72
2022/11/21 13:02:15;;;;;;;6.57;1.65;;;;;;;;;;5021433;28;20039;-73
2022/11/21 13:04:43;;;;;;;5.47;1.80;;;;;;;;;;5076720;28;20036;-73
2022/11/21 13:07:09;;;;;;;7.72;1.70;;;;;;;;;;5071871;28;20060;-73
2022/11/21 13:09:43;;;;;;;7.18;1.67;;;;;;;;;;5008962;28;20131;-73
2022/11/21 13:12:12;;;;;;;9.23;2.55;;;;;;;;;;4986404;28;20040;-73
2022/11/21 13:14:38;;;;;;;22.17;12.35;;;;;;;;;;5067145;28;20063;-73
2022/11/21 13:17:20;;;;;;;14.80;6.32;;;;;;;;;;4929737;28;20051;-73
2022/11/21 13:20:04;;;;;;;13.63;8.32;;;;;;;;;;5079195;28;20415;-73
2022/11/21 13:22:36;;;;;;;8.30;3.42;;;;;;;;;;5000954;28;20039;-73
2022/11/21 13:25:09;;;;;;;12.95;5.95;;;;;;;;;;5075847;28;20064;-73
2022/11/21 13:27:36;;;;;;;16.13;6.75;;;;;;;;;;4965262;28;21358;-73
2022/11/21 13:30:11;;;;;;;7.78;2.60;;;;;;;;;;5073357;28;20070;-73
2022/11/21 13:32:51;;;;;;;4.97;1.45;;;;;;;;;;5081024;28;20060;-72
2022/11/21 13:35:20;;;;;;;3.55;1.10;;;;;;;;;;5076228;28;20027;-73
2022/11/21 13:37:49;;;;;;;9.45;1.90;;;;;;;;;;5081716;28;20531;-73
2022/11/21 13:40:38;;;;;;;7.00;1.70;;;;;;;;;;5076441;28;20027;-73
2022/11/21 13:43:18;;;;;;;6.30;2.17;;;;;;;;;;5069631;28;20048;-73
2022/11/21 13:45:45;;;;;;;12.63;2.38;;;;;;;;;;5077948;28;20025;-73
2022/11/21 13:48:34;;;;;;;10.88;2.10;;;;;;;;;;5079514;28;20036;-73
2022/11/21 13:51:00;;;;;;;7.10;3.60;;;;;;;;;;5083569;28;20024;-72
2022/11/21 13:53:41;;;;;;;9.27;2.17;;;;;;;;;;5076081;28;20627;-72
2022/11/21 13:56:26;;;;;;;5.40;2.08;;;;;;;;;;5072377;28;20024;-73
2022/11/21 13:59:01;;;;;;;9.60;2.08;;;;;;;;;;5076808;28;20127;-73
2022/11/21 14:01:52;;;;;;;11.23;4.05;;;;;;;;;;5083929;28;21021;-72
2022/11/21 14:04:33;;;;;;;5.03;1.75;;;;;;;;;;5077299;28;20032;-73
2022/11/21 14:07:18;;;;;;;7.05;2.10;;;;;;;;;;5076986;28;20051;-72
2022/11/21 14:09:48;;;;;;;7.32;2.13;;;;;;;;;;5078113;28;20043;-72
2022/11/21 14:12:34;;;;;;;5.30;1.48;;;;;;;;;;5075756;28;20059;-72
2022/11/21 14:15:00;;;;;;;6.70;1.90;;;;;;;;;;5071867;28;20024;-72
2022/11/21 14:17:29;;;;;;;7.07;2.17;;;;;;;;;;5074178;28;20033;-72
2022/11/21 14:19:56;;;;;;;4.60;1.52;;;;;;;;;;5072909;28;20064;-72
2022/11/21 14:22:28;;;;;;;5.85;1.50;;;;;;;;;;5078311;28;20052;-72
2022/11/21 14:24:55;;;;;;;4.78;1.40;;;;;;;;;;5079382;28;20052;-72
2022/11/21 14:27:26;;;;;;;5.43;1.65;;;;;;;;;;5071172;28;20036;-72
2022/11/21 14:29:52;;;;;;;6.47;1.97;;;;;;;;;;5079168;28;20070;-72
2022/11/21 14:32:25;;;;;;;6.57;1.45;;;;;;;;;;5082937;28;20274;-72
2022/11/21 14:34:51;;;;;;;8.63;2.08;;;;;;;;;;5062096;28;20111;-72
2022/11/21 14:37:17;;;;;;;7.35;2.40;;;;;;;;;;5077634;28;20108;-72
2022/11/21 14:39:45;;;;;;;9.73;3.65;;;;;;;;;;5073480;28;20477;-72
2022/11/21 14:42:15;;;;;;;6.32;2.50;;;;;;;;;;5076344;28;20089;-72
2022/11/21 14:44:41;;;;;;;14.55;3.05;;;;;;;;;;5082583;28;20478;-72
2022/11/21 14:47:15;;;;;;;9.48;3.20;;;;;;;;;;5079132;28;20056;-73
2022/11/21 14:49:49;;;;;;;11.65;3.65;;;;;;;;;;5073081;28;20024;-73
2022/11/21 14:52:20;;;;;;;10.30;5.07;;;;;;;;;;5074477;28;20052;-72
2022/11/21 14:54:49;;;;;;;11.50;5.35;;;;;;;;;;5077226;28;20106;-71
2022/11/21 14:57:23;;;;;;;10.10;4.75;;;;;;;;;;5065899;28;20074;-72
2022/11/21 14:59:50;;;;;;;13.57;5.20;;;;;;;;;;5078452;28;20047;-72
2022/11/21 15:02:27;;;;;;;13.63;4.03;;;;;;;;;;5078626;28;20842;-73
2022/11/21 15:04:55;;;;;;;12.52;4.20;;;;;;;;;;5074749;28;20032;-72
2022/11/21 15:07:29;;;;;;;13.35;4.55;;;;;;;;;;5082136;28;22036;-72
2022/11/21 15:09:55;;;;;;;11.43;3.42;;;;;;;;;;5079473;28;20107;-72
2022/11/21 15:12:30;;;;;;;13.55;4.28;;;;;;;;;;5078151;28;20047;-71
2022/11/21 15:15:01;;;;;;;10.18;2.80;;;;;;;;;;5073625;28;20024;-72
2022/11/21 15:17:27;;;;;;;11.63;3.70;;;;;;;;;;5080119;28;20032;-73